createdAt,value
2018-02-12T07:12:54.038Z,22.12
2018-02-12T07:13:59.017Z,21.89
2018-02-12T07:15:03.741Z,21.81
2018-02-12T07:16:08.457Z,21.67
2018-02-12T07:17:13.188Z,21.86
2018-02-12T07:18:18.477Z,21.87
2018-02-12T07:19:23.150Z,21.46
2018-02-12T07:20:27.866Z,21.34
2018-02-12T07:21:33.099Z,22.10
2018-02-12T07:22:37.781Z,22.09
2018-02-12T07:23:42.784Z,22.12
2018-02-12T07:24:47.746Z,21.93
2018-02-12T07:25:52.481Z,22.20
2018-02-12T07:26:58.078Z,22.23
2018-02-12T07:28:02.809Z,22.25
2018-02-12T07:29:07.552Z,22.22
2018-02-12T07:30:12.309Z,22.23
2018-02-12T07:31:17.479Z,22.21
2018-02-12T07:32:22.119Z,22.17
2018-02-12T07:33:26.789Z,21.99
2018-02-12T07:34:31.480Z,22.01
2018-02-12T07:35:36.204Z,22.14
2018-02-12T07:36:41.780Z,22.15
2018-02-12T07:37:47.472Z,22.16
2018-02-12T07:38:52.193Z,22.13
2018-02-12T07:39:57.361Z,22.15
2018-02-12T07:41:02.368Z,22.14
2018-02-12T07:42:07.108Z,22.14
2018-02-12T07:43:11.800Z,22.11
2018-02-12T07:44:16.989Z,22.14
2018-02-12T07:45:21.679Z,22.14
2018-02-12T07:46:26.435Z,22.17
2018-02-12T07:47:31.174Z,22.15
2018-02-12T07:48:35.797Z,22.16
2018-02-12T07:49:40.429Z,21.58
2018-02-12T07:50:45.694Z,22.16
2018-02-12T07:51:50.410Z,22.16
2018-02-12T07:52:55.030Z,21.21
2018-02-12T07:53:59.641Z,22.20
2018-02-12T07:55:04.537Z,22.17
2018-02-12T07:56:09.275Z,22.23
2018-02-12T07:57:14.493Z,22.21
2018-02-12T07:58:19.214Z,22.16
2018-02-12T07:59:24.896Z,22.19
2018-02-12T08:00:29.594Z,22.20
2018-02-12T08:01:34.286Z,22.13
2018-02-12T08:02:38.986Z,22.07
2018-02-12T08:03:44.656Z,21.45
2018-02-12T08:04:49.367Z,22.07
2018-02-12T08:05:54.228Z,21.64
2018-02-12T08:06:58.971Z,22.04
2018-02-12T08:08:03.680Z,22.04
2018-02-12T08:09:08.397Z,22.02
2018-02-12T08:10:13.696Z,22.04
2018-02-12T08:11:18.880Z,22.04
2018-02-12T08:12:23.631Z,22.03
2018-02-12T08:13:28.442Z,22.04
2018-02-12T08:14:33.205Z,22.03
2018-02-12T08:15:38.109Z,22.06
2018-02-12T08:16:43.217Z,22.05
2018-02-12T08:17:47.983Z,22.03
2018-02-12T08:18:52.772Z,22.03
2018-02-12T08:19:58.690Z,21.39
2018-02-12T08:21:05.029Z,22.04
2018-02-12T08:22:10.600Z,22.04
2018-02-12T08:23:17.551Z,22.03
2018-02-12T08:24:24.260Z,22.04
2018-02-12T08:25:38.913Z,22.04
2018-02-12T08:26:49.831Z,22.05
2018-02-12T08:27:58.710Z,22.07
2018-02-12T08:29:04.239Z,22.05
2018-02-12T08:30:09.571Z,22.08
2018-02-12T08:31:14.490Z,21.89
2018-02-12T08:32:19.336Z,22.15
2018-02-12T08:33:24.097Z,22.13
2018-02-12T08:34:28.953Z,22.08
2018-02-12T08:35:33.990Z,21.22
2018-02-12T08:36:38.738Z,22.05
2018-02-12T08:37:43.443Z,22.03
2018-02-12T08:38:48.171Z,22.04
2018-02-12T08:39:52.872Z,20.80
2018-02-12T08:40:58.611Z,21.77
2018-02-12T08:42:03.779Z,22.04
2018-02-12T08:43:08.463Z,20.77
2018-02-12T08:44:13.246Z,22.10
2018-02-12T08:45:17.967Z,22.17
2018-02-12T08:46:22.720Z,22.14
2018-02-12T08:47:27.571Z,22.11
2018-02-12T08:48:32.676Z,22.10
2018-02-12T08:49:37.383Z,22.10
2018-02-12T08:50:42.152Z,22.21
2018-02-12T08:51:46.923Z,22.15
2018-02-12T08:52:51.664Z,20.89
2018-02-12T08:53:56.373Z,21.43
2018-02-12T08:55:01.542Z,22.14
2018-02-12T08:56:06.349Z,22.13
2018-02-12T08:57:11.378Z,22.13
2018-02-12T08:58:16.134Z,22.16
2018-02-12T08:59:20.970Z,22.19
2018-02-12T09:00:25.845Z,22.17
2018-02-12T09:01:31.451Z,22.14
2018-02-12T09:02:36.374Z,21.63
2018-02-12T09:03:41.184Z,21.68
2018-02-12T09:04:46.174Z,22.24
2018-02-12T09:05:51.295Z,22.16
2018-02-12T09:06:56.385Z,22.00
2018-02-12T09:08:01.294Z,22.19
2018-02-12T09:09:06.151Z,22.26
2018-02-12T09:10:11.285Z,21.52
2018-02-12T09:11:16.031Z,21.71
2018-02-12T09:12:20.776Z,21.51
2018-02-12T09:13:25.995Z,20.77
2018-02-12T09:14:30.712Z,22.24
2018-02-12T09:15:35.594Z,22.25
2018-02-12T09:16:40.448Z,22.26
2018-02-12T09:17:45.597Z,19.73
2018-02-12T09:18:50.648Z,22.25
2018-02-12T09:19:55.965Z,22.23
2018-02-12T09:21:00.769Z,22.20
2018-02-12T15:22:52.519Z,23.89
2018-02-12T15:23:57.350Z,24.22
2018-02-12T15:25:02.288Z,24.38
2018-02-12T15:26:07.548Z,24.49
2018-02-12T15:27:13.466Z,24.58
2018-02-12T15:28:18.453Z,24.64
2018-02-12T15:29:24.562Z,24.69
2018-02-12T15:30:31.688Z,24.78
2018-02-12T15:31:36.727Z,24.79
2018-02-12T15:32:42.154Z,24.84
2018-02-12T15:33:47.237Z,24.81
2018-02-12T15:34:55.355Z,24.82
2018-02-12T15:36:00.177Z,24.83
2018-02-12T15:37:05.088Z,24.83
2018-02-12T15:38:10.012Z,24.81
2018-02-12T15:39:14.846Z,24.45
2018-02-12T15:40:21.404Z,24.83
2018-02-12T15:41:33.149Z,24.85
2018-02-12T15:42:39.385Z,24.89
2018-02-12T15:43:44.483Z,24.97
2018-02-12T15:44:50.255Z,24.09
2018-02-12T15:45:55.650Z,24.97
2018-02-12T15:47:02.787Z,24.99
2018-02-12T15:48:07.593Z,24.93
2018-02-12T15:49:13.253Z,24.91
2018-02-12T15:50:18.501Z,24.92
2018-02-12T15:51:26.679Z,24.98
2018-02-12T15:52:33.593Z,25.03
2018-02-12T15:53:40.618Z,25.10
2018-02-12T15:54:46.533Z,25.11
2018-02-12T15:55:52.890Z,25.15
2018-02-12T15:56:57.886Z,25.13
2018-02-12T15:58:03.079Z,24.52
2018-02-12T15:59:07.935Z,25.01
2018-02-12T16:00:12.891Z,24.96
2018-02-12T16:01:17.690Z,24.68
2018-02-12T16:02:23.553Z,24.95
2018-02-12T16:03:30.227Z,24.94
2018-02-12T16:04:39.219Z,25.00
2018-02-12T16:05:44.006Z,25.05
2018-02-12T16:06:48.829Z,24.12
2018-02-12T16:07:53.526Z,24.98
2018-02-12T16:08:59.123Z,25.00
2018-02-12T16:10:04.940Z,25.01
2018-02-12T16:11:10.244Z,25.02
2018-02-12T16:12:15.046Z,25.01
2018-02-12T16:47:34.608Z,20.46
2018-02-12T16:48:41.339Z,19.49
2018-02-12T16:49:52.870Z,19.14
2018-02-12T16:50:58.584Z,19.00
2018-02-12T16:52:05.828Z,18.28
2018-02-12T16:53:11.688Z,18.90
2018-02-12T16:54:16.748Z,18.89
2018-02-12T16:55:24.379Z,18.88
2018-02-12T16:56:29.926Z,18.86
2018-02-12T16:57:36.034Z,18.86
2018-02-12T16:58:42.804Z,18.85
2018-02-12T16:59:52.006Z,18.84
2018-02-12T17:01:01.516Z,18.81
2018-02-12T17:02:11.742Z,5.88
2018-02-12T17:03:19.630Z,1.41
2018-02-12T17:04:29.005Z,1.24
2018-02-12T17:05:35.479Z,0.41
2018-02-12T17:06:40.602Z,0.80
2018-02-12T17:07:45.810Z,1.02
2018-02-12T17:08:54.595Z,1.08
2018-02-12T17:10:01.237Z,0.91
2018-02-12T17:11:14.102Z,1.01
2018-02-12T17:12:21.703Z,0.62
2018-02-12T17:13:30.886Z,0.87
2018-02-12T17:14:36.272Z,-0.88
2018-02-12T17:15:42.343Z,0.86
2018-02-12T17:16:49.995Z,1.12
2018-02-12T17:17:58.057Z,1.05
2018-02-12T17:19:06.576Z,0.26
2018-02-12T17:20:16.541Z,0.61
2018-02-12T17:21:25.482Z,0.68
2018-02-12T17:22:33.300Z,1.00
2018-02-12T17:23:41.232Z,0.78
2018-02-12T17:24:50.284Z,0.47
2018-02-12T17:25:58.654Z,0.49
2018-02-12T17:27:07.269Z,14.40
2018-02-12T17:28:15.375Z,19.79
2018-02-12T17:29:23.142Z,21.93
2018-02-12T17:30:37.279Z,22.93
2018-02-12T17:31:45.662Z,23.64
2018-02-12T17:32:51.784Z,22.86
2018-02-12T17:33:57.975Z,23.72
2018-02-12T17:35:04.880Z,24.41
2018-02-12T17:36:13.744Z,24.51
2018-02-12T17:37:24.209Z,24.68
2018-02-12T17:38:34.458Z,24.77
2018-02-12T17:39:44.038Z,24.74
2018-02-12T17:40:53.098Z,24.23
2018-02-12T17:42:01.166Z,23.72
2018-02-12T17:43:09.947Z,23.58
2018-02-12T17:44:17.964Z,24.01
2018-02-12T17:45:24.182Z,23.43
2018-02-12T17:46:32.494Z,24.12
2018-02-12T17:47:40.020Z,23.83
2018-02-12T17:48:47.202Z,23.38
2018-02-12T17:49:56.598Z,23.37
2018-02-12T17:51:04.846Z,23.53
2018-02-12T17:52:14.517Z,23.52
2018-02-12T17:53:22.581Z,23.69
2018-02-12T17:54:30.765Z,23.85
2018-02-12T17:55:42.453Z,23.87
2018-02-12T17:56:53.451Z,23.64
2018-02-12T17:58:06.547Z,23.51
2018-02-12T17:59:17.883Z,23.45
2018-02-12T18:00:27.843Z,23.54
2018-02-12T18:01:39.388Z,23.45
2018-02-12T18:02:48.700Z,23.82
2018-02-12T18:03:57.583Z,23.92
